sensor_id;sensor_type;location;lat;lon;timestamp;P1;durP1;ratioP1;P2;durP2;ratioP2
61635;SDS011;59438;45.014;39.006;2022-09-09T00:02:01;21.67;;;7.40;;
61635;SDS011;59438;45.014;39.006;2022-09-09T00:04:35;21.45;;;7.47;;
61635;SDS011;59438;45.014;39.006;2022-09-09T00:07:04;21.45;;;8.05;;
61635;SDS011;59438;45.014;39.006;2022-09-09T00:09:38;22.38;;;9.43;;
61635;SDS011;59438;45.014;39.006;2022-09-09T00:12:12;35.13;;;14.90;;
61635;SDS011;59438;45.014;39.006;2022-09-09T00:14:48;43.22;;;15.55;;
61635;SDS011;59438;45.014;39.006;2022-09-09T00:17:22;59.20;;;19.67;;
61635;SDS011;59438;45.014;39.006;2022-09-09T00:19:59;53.00;;;22.25;;
61635;SDS011;59438;45.014;39.006;2022-09-09T00:22:29;54.83;;;23.63;;
61635;SDS011;59438;45.014;39.006;2022-09-09T00:24:58;67.97;;;28.30;;
61635;SDS011;59438;45.014;39.006;2022-09-09T00:27:36;61.53;;;27.13;;
61635;SDS011;59438;45.014;39.006;2022-09-09T00:30:13;66.75;;;26.65;;
61635;SDS011;59438;45.014;39.006;2022-09-09T00:32:42;72.57;;;29.08;;
61635;SDS011;59438;45.014;39.006;2022-09-09T00:35:13;66.18;;;28.92;;
61635;SDS011;59438;45.014;39.006;2022-09-09T00:37:43;65.45;;;28.55;;
61635;SDS011;59438;45.014;39.006;2022-09-09T00:40:17;71.05;;;31.00;;
61635;SDS011;59438;45.014;39.006;2022-09-09T00:42:48;80.63;;;35.42;;
61635;SDS011;59438;45.014;39.006;2022-09-09T00:45:27;74.95;;;34.65;;
61635;SDS011;59438;45.014;39.006;2022-09-09T00:48:04;89.40;;;34.95;;
61635;SDS011;59438;45.014;39.006;2022-09-09T00:50:38;74.60;;;35.55;;
61635;SDS011;59438;45.014;39.006;2022-09-09T00:56:03;83.53;;;35.38;;
61635;SDS011;59438;45.014;39.006;2022-09-09T00:58:37;84.72;;;35.65;;
61635;SDS011;59438;45.014;39.006;2022-09-09T01:01:04;79.00;;;35.55;;
61635;SDS011;59438;45.014;39.006;2022-09-09T01:03:34;92.78;;;37.78;;
61635;SDS011;59438;45.014;39.006;2022-09-09T01:06:14;86.93;;;38.20;;
61635;SDS011;59438;45.014;39.006;2022-09-09T01:08:54;80.75;;;35.63;;
61635;SDS011;59438;45.014;39.006;2022-09-09T01:11:43;79.32;;;32.47;;
61635;SDS011;59438;45.014;39.006;2022-09-09T01:14:24;72.53;;;32.72;;
61635;SDS011;59438;45.014;39.006;2022-09-09T01:17:04;76.97;;;32.40;;
61635;SDS011;59438;45.014;39.006;2022-09-09T01:19:45;73.72;;;33.30;;
61635;SDS011;59438;45.014;39.006;2022-09-09T01:22:35;78.38;;;34.75;;
61635;SDS011;59438;45.014;39.006;2022-09-09T01:25:20;85.30;;;37.65;;
61635;SDS011;59438;45.014;39.006;2022-09-09T01:27:55;116.55;;;44.67;;
61635;SDS011;59438;45.014;39.006;2022-09-09T01:30:24;108.82;;;45.03;;
61635;SDS011;59438;45.014;39.006;2022-09-09T01:32:53;118.53;;;50.47;;
61635;SDS011;59438;45.014;39.006;2022-09-09T01:35:26;132.25;;;55.00;;
61635;SDS011;59438;45.014;39.006;2022-09-09T01:37:59;145.32;;;55.92;;
61635;SDS011;59438;45.014;39.006;2022-09-09T01:40:26;136.63;;;53.63;;
61635;SDS011;59438;45.014;39.006;2022-09-09T01:42:53;132.98;;;55.13;;
61635;SDS011;59438;45.014;39.006;2022-09-09T01:45:21;147.73;;;59.22;;
61635;SDS011;59438;45.014;39.006;2022-09-09T01:47:49;136.35;;;57.42;;
61635;SDS011;59438;45.014;39.006;2022-09-09T01:50:17;149.68;;;60.10;;
61635;SDS011;59438;45.014;39.006;2022-09-09T01:52:45;138.20;;;59.78;;
61635;SDS011;59438;45.014;39.006;2022-09-09T01:55:15;136.82;;;57.80;;
61635;SDS011;59438;45.014;39.006;2022-09-09T01:57:43;128.38;;;54.53;;
61635;SDS011;59438;45.014;39.006;2022-09-09T02:00:18;130.82;;;52.22;;
61635;SDS011;59438;45.014;39.006;2022-09-09T02:02:45;121.38;;;49.85;;
61635;SDS011;59438;45.014;39.006;2022-09-09T02:05:23;116.72;;;50.80;;
61635;SDS011;59438;45.014;39.006;2022-09-09T02:08:00;133.55;;;50.95;;
61635;SDS011;59438;45.014;39.006;2022-09-09T02:10:33;126.95;;;50.67;;
61635;SDS011;59438;45.014;39.006;2022-09-09T02:13:07;119.93;;;50.03;;
61635;SDS011;59438;45.014;39.006;2022-09-09T02:15:40;121.53;;;48.40;;
61635;SDS011;59438;45.014;39.006;2022-09-09T02:18:11;113.32;;;47.38;;
61635;SDS011;59438;45.014;39.006;2022-09-09T02:20:42;116.68;;;48.65;;
61635;SDS011;59438;45.014;39.006;2022-09-09T02:23:10;117.95;;;49.65;;
61635;SDS011;59438;45.014;39.006;2022-09-09T02:25:38;112.68;;;49.08;;
61635;SDS011;59438;45.014;39.006;2022-09-09T02:28:07;122.25;;;51.92;;
61635;SDS011;59438;45.014;39.006;2022-09-09T02:30:35;130.15;;;51.97;;
61635;SDS011;59438;45.014;39.006;2022-09-09T02:33:05;113.75;;;50.97;;
61635;SDS011;59438;45.014;39.006;2022-09-09T02:35:34;130.05;;;52.97;;
61635;SDS011;59438;45.014;39.006;2022-09-09T02:38:01;125.72;;;53.53;;
61635;SDS011;59438;45.014;39.006;2022-09-09T02:40:32;130.93;;;53.72;;
61635;SDS011;59438;45.014;39.006;2022-09-09T02:42:59;152.48;;;59.63;;
61635;SDS011;59438;45.014;39.006;2022-09-09T02:45:27;196.60;;;75.93;;
61635;SDS011;59438;45.014;39.006;2022-09-09T02:48:03;208.13;;;86.53;;
61635;SDS011;59438;45.014;39.006;2022-09-09T02:50:36;225.77;;;93.40;;
61635;SDS011;59438;45.014;39.006;2022-09-09T02:53:09;248.85;;;100.72;;
61635;SDS011;59438;45.014;39.006;2022-09-09T02:55:43;213.50;;;88.32;;
61635;SDS011;59438;45.014;39.006;2022-09-09T03:00:40;116.47;;;47.15;;
61635;SDS011;59438;45.014;39.006;2022-09-09T03:03:08;97.65;;;38.05;;
61635;SDS011;59438;45.014;39.006;2022-09-09T03:05:34;83.78;;;35.50;;
61635;SDS011;59438;45.014;39.006;2022-09-09T03:08:01;85.18;;;33.45;;
61635;SDS011;59438;45.014;39.006;2022-09-09T03:10:28;73.90;;;32.47;;
61635;SDS011;59438;45.014;39.006;2022-09-09T03:12:54;86.60;;;32.50;;
61635;SDS011;59438;45.014;39.006;2022-09-09T03:15:21;83.05;;;31.33;;
61635;SDS011;59438;45.014;39.006;2022-09-09T03:17:47;86.15;;;33.00;;
61635;SDS011;59438;45.014;39.006;2022-09-09T03:20:15;70.57;;;31.75;;
61635;SDS011;59438;45.014;39.006;2022-09-09T03:22:42;82.78;;;30.92;;
61635;SDS011;59438;45.014;39.006;2022-09-09T03:25:08;75.00;;;31.23;;
61635;SDS011;59438;45.014;39.006;2022-09-09T03:27:35;81.68;;;32.22;;
61635;SDS011;59438;45.014;39.006;2022-09-09T03:30:01;82.18;;;30.52;;
61635;SDS011;59438;45.014;39.006;2022-09-09T03:32:28;75.50;;;32.15;;
61635;SDS011;59438;45.014;39.006;2022-09-09T03:34:55;78.95;;;32.45;;
61635;SDS011;59438;45.014;39.006;2022-09-09T03:37:23;80.68;;;32.55;;
61635;SDS011;59438;45.014;39.006;2022-09-09T03:39:49;86.63;;;34.03;;
61635;SDS011;59438;45.014;39.006;2022-09-09T03:42:15;81.70;;;34.63;;
61635;SDS011;59438;45.014;39.006;2022-09-09T03:44:42;83.13;;;35.50;;
61635;SDS011;59438;45.014;39.006;2022-09-09T03:47:08;91.68;;;37.10;;
61635;SDS011;59438;45.014;39.006;2022-09-09T03:49:35;95.20;;;38.03;;
61635;SDS011;59438;45.014;39.006;2022-09-09T03:52:01;92.63;;;39.42;;
61635;SDS011;59438;45.014;39.006;2022-09-09T03:54:29;104.65;;;39.20;;
61635;SDS011;59438;45.014;39.006;2022-09-09T03:56:55;98.07;;;38.85;;
61635;SDS011;59438;45.014;39.006;2022-09-09T03:59:22;95.40;;;38.00;;
61635;SDS011;59438;45.014;39.006;2022-09-09T04:01:48;95.97;;;39.30;;
61635;SDS011;59438;45.014;39.006;2022-09-09T04:04:15;94.60;;;38.10;;
61635;SDS011;59438;45.014;39.006;2022-09-09T04:06:41;94.85;;;37.30;;
61635;SDS011;59438;45.014;39.006;2022-09-09T04:09:07;91.13;;;36.35;;
61635;SDS011;59438;45.014;39.006;2022-09-09T04:11:35;96.00;;;36.13;;
61635;SDS011;59438;45.014;39.006;2022-09-09T04:14:01;88.57;;;34.95;;
61635;SDS011;59438;45.014;39.006;2022-09-09T04:16:28;86.38;;;34.88;;
61635;SDS011;59438;45.014;39.006;2022-09-09T04:18:55;81.68;;;35.25;;
61635;SDS011;59438;45.014;39.006;2022-09-09T04:21:21;87.97;;;32.50;;
61635;SDS011;59438;45.014;39.006;2022-09-09T04:23:47;85.75;;;32.58;;
61635;SDS011;59438;45.014;39.006;2022-09-09T04:26:14;87.38;;;32.60;;
61635;SDS011;59438;45.014;39.006;2022-09-09T04:28:42;74.28;;;30.70;;
61635;SDS011;59438;45.014;39.006;2022-09-09T04:31:09;81.57;;;32.08;;
61635;SDS011;59438;45.014;39.006;2022-09-09T04:33:40;84.40;;;32.47;;
61635;SDS011;59438;45.014;39.006;2022-09-09T04:36:06;64.43;;;28.65;;
61635;SDS011;59438;45.014;39.006;2022-09-09T04:38:33;68.90;;;28.38;;
61635;SDS011;59438;45.014;39.006;2022-09-09T04:40:59;67.35;;;28.52;;
61635;SDS011;59438;45.014;39.006;2022-09-09T04:43:26;66.10;;;28.35;;
61635;SDS011;59438;45.014;39.006;2022-09-09T04:45:54;60.63;;;26.80;;
61635;SDS011;59438;45.014;39.006;2022-09-09T04:48:20;65.68;;;25.75;;
61635;SDS011;59438;45.014;39.006;2022-09-09T04:50:53;48.80;;;20.58;;
61635;SDS011;59438;45.014;39.006;2022-09-09T04:53:20;41.13;;;18.08;;
61635;SDS011;59438;45.014;39.006;2022-09-09T04:55:47;45.85;;;18.90;;
61635;SDS011;59438;45.014;39.006;2022-09-09T04:58:13;42.70;;;18.58;;
61635;SDS011;59438;45.014;39.006;2022-09-09T05:00:40;39.58;;;17.58;;
61635;SDS011;59438;45.014;39.006;2022-09-09T05:03:08;36.28;;;15.73;;
61635;SDS011;59438;45.014;39.006;2022-09-09T05:05:34;36.08;;;15.45;;
61635;SDS011;59438;45.014;39.006;2022-09-09T05:08:02;31.50;;;14.13;;
61635;SDS011;59438;45.014;39.006;2022-09-09T05:10:28;31.88;;;14.95;;
61635;SDS011;59438;45.014;39.006;2022-09-09T05:12:55;36.08;;;14.50;;
61635;SDS011;59438;45.014;39.006;2022-09-09T05:15:21;31.15;;;13.30;;
61635;SDS011;59438;45.014;39.006;2022-09-09T05:17:48;43.33;;;16.25;;
61635;SDS011;59438;45.014;39.006;2022-09-09T05:20:16;39.35;;;14.52;;
61635;SDS011;59438;45.014;39.006;2022-09-09T05:22:42;29.77;;;14.05;;
61635;SDS011;59438;45.014;39.006;2022-09-09T05:25:09;24.45;;;13.13;;
61635;SDS011;59438;45.014;39.006;2022-09-09T05:27:35;29.23;;;12.43;;
61635;SDS011;59438;45.014;39.006;2022-09-09T05:30:02;22.67;;;10.98;;
61635;SDS011;59438;45.014;39.006;2022-09-09T05:32:29;21.35;;;9.15;;
61635;SDS011;59438;45.014;39.006;2022-09-09T05:34:55;20.55;;;8.85;;
61635;SDS011;59438;45.014;39.006;2022-09-09T05:37:23;20.42;;;8.85;;
61635;SDS011;59438;45.014;39.006;2022-09-09T05:39:50;19.30;;;7.88;;
61635;SDS011;59438;45.014;39.006;2022-09-09T05:42:16;22.63;;;8.57;;
61635;SDS011;59438;45.014;39.006;2022-09-09T05:44:42;18.15;;;8.52;;
61635;SDS011;59438;45.014;39.006;2022-09-09T05:47:09;19.48;;;7.20;;
61635;SDS011;59438;45.014;39.006;2022-09-09T05:49:35;12.80;;;4.70;;
61635;SDS011;59438;45.014;39.006;2022-09-09T05:52:02;12.13;;;5.03;;
61635;SDS011;59438;45.014;39.006;2022-09-09T05:54:30;10.07;;;3.90;;
61635;SDS011;59438;45.014;39.006;2022-09-09T05:56:56;11.10;;;3.65;;
61635;SDS011;59438;45.014;39.006;2022-09-09T05:59:22;9.07;;;4.28;;
61635;SDS011;59438;45.014;39.006;2022-09-09T06:01:49;9.38;;;3.78;;
61635;SDS011;59438;45.014;39.006;2022-09-09T06:04:15;24.05;;;4.57;;
61635;SDS011;59438;45.014;39.006;2022-09-09T06:06:42;15.75;;;3.80;;
61635;SDS011;59438;45.014;39.006;2022-09-09T06:09:08;11.50;;;4.35;;
61635;SDS011;59438;45.014;39.006;2022-09-09T06:11:37;8.80;;;3.85;;
61635;SDS011;59438;45.014;39.006;2022-09-09T06:14:05;6.95;;;3.55;;
61635;SDS011;59438;45.014;39.006;2022-09-09T06:16:32;11.45;;;3.17;;
61635;SDS011;59438;45.014;39.006;2022-09-09T06:18:58;11.88;;;4.38;;
61635;SDS011;59438;45.014;39.006;2022-09-09T06:21:26;7.65;;;4.00;;
61635;SDS011;59438;45.014;39.006;2022-09-09T06:23:53;8.57;;;3.35;;
61635;SDS011;59438;45.014;39.006;2022-09-09T06:26:20;10.60;;;3.88;;
61635;SDS011;59438;45.014;39.006;2022-09-09T06:28:49;7.47;;;3.50;;
61635;SDS011;59438;45.014;39.006;2022-09-09T06:31:16;9.40;;;4.10;;
61635;SDS011;59438;45.014;39.006;2022-09-09T06:33:44;11.48;;;4.38;;
61635;SDS011;59438;45.014;39.006;2022-09-09T06:36:11;11.45;;;4.93;;
61635;SDS011;59438;45.014;39.006;2022-09-09T06:38:38;8.10;;;4.35;;
61635;SDS011;59438;45.014;39.006;2022-09-09T06:41:05;10.30;;;4.10;;
61635;SDS011;59438;45.014;39.006;2022-09-09T06:43:31;15.50;;;4.10;;
61635;SDS011;59438;45.014;39.006;2022-09-09T06:46:00;14.48;;;5.05;;
61635;SDS011;59438;45.014;39.006;2022-09-09T06:48:27;15.23;;;6.10;;
61635;SDS011;59438;45.014;39.006;2022-09-09T06:51:01;20.85;;;6.30;;
61635;SDS011;59438;45.014;39.006;2022-09-09T06:53:29;13.95;;;5.18;;
61635;SDS011;59438;45.014;39.006;2022-09-09T06:55:56;15.40;;;5.55;;
61635;SDS011;59438;45.014;39.006;2022-09-09T06:58:22;17.48;;;6.25;;
61635;SDS011;59438;45.014;39.006;2022-09-09T07:00:49;14.48;;;5.28;;
61635;SDS011;59438;45.014;39.006;2022-09-09T07:03:17;14.50;;;5.55;;
61635;SDS011;59438;45.014;39.006;2022-09-09T07:05:43;13.10;;;5.57;;
61635;SDS011;59438;45.014;39.006;2022-09-09T07:08:18;14.30;;;5.88;;
61635;SDS011;59438;45.014;39.006;2022-09-09T07:10:45;14.82;;;5.20;;
61635;SDS011;59438;45.014;39.006;2022-09-09T07:13:11;14.20;;;5.65;;
61635;SDS011;59438;45.014;39.006;2022-09-09T07:15:38;14.25;;;4.93;;
61635;SDS011;59438;45.014;39.006;2022-09-09T07:18:05;18.98;;;4.40;;
61635;SDS011;59438;45.014;39.006;2022-09-09T07:20:34;14.93;;;4.40;;
61635;SDS011;59438;45.014;39.006;2022-09-09T07:23:00;9.57;;;4.55;;
61635;SDS011;59438;45.014;39.006;2022-09-09T07:25:26;10.25;;;3.70;;
61635;SDS011;59438;45.014;39.006;2022-09-09T07:27:53;8.32;;;2.83;;
61635;SDS011;59438;45.014;39.006;2022-09-09T07:30:19;9.38;;;3.60;;
61635;SDS011;59438;45.014;39.006;2022-09-09T07:32:46;36.60;;;4.25;;
61635;SDS011;59438;45.014;39.006;2022-09-09T07:35:12;28.55;;;4.25;;
61635;SDS011;59438;45.014;39.006;2022-09-09T07:37:40;22.13;;;3.47;;
61635;SDS011;59438;45.014;39.006;2022-09-09T07:40:07;12.45;;;3.33;;
61635;SDS011;59438;45.014;39.006;2022-09-09T07:42:34;11.70;;;3.92;;
61635;SDS011;59438;45.014;39.006;2022-09-09T07:45:00;10.48;;;3.35;;
61635;SDS011;59438;45.014;39.006;2022-09-09T07:47:26;13.60;;;3.13;;
61635;SDS011;59438;45.014;39.006;2022-09-09T07:49:53;6.63;;;2.85;;
61635;SDS011;59438;45.014;39.006;2022-09-09T07:52:19;12.60;;;3.35;;
61635;SDS011;59438;45.014;39.006;2022-09-09T07:54:48;6.95;;;3.25;;
61635;SDS011;59438;45.014;39.006;2022-09-09T07:57:15;9.18;;;3.45;;
61635;SDS011;59438;45.014;39.006;2022-09-09T07:59:41;15.10;;;3.65;;
61635;SDS011;59438;45.014;39.006;2022-09-09T08:02:08;7.13;;;3.10;;
61635;SDS011;59438;45.014;39.006;2022-09-09T08:04:35;6.95;;;2.95;;
61635;SDS011;59438;45.014;39.006;2022-09-09T08:07:01;9.40;;;2.80;;
61635;SDS011;59438;45.014;39.006;2022-09-09T08:09:28;13.15;;;3.17;;
61635;SDS011;59438;45.014;39.006;2022-09-09T08:11:56;8.32;;;2.88;;
61635;SDS011;59438;45.014;39.006;2022-09-09T08:14:23;9.63;;;3.35;;
61635;SDS011;59438;45.014;39.006;2022-09-09T08:16:50;6.55;;;2.70;;
61635;SDS011;59438;45.014;39.006;2022-09-09T08:19:16;11.43;;;2.70;;
61635;SDS011;59438;45.014;39.006;2022-09-09T08:21:43;10.13;;;2.67;;
61635;SDS011;59438;45.014;39.006;2022-09-09T08:24:10;6.50;;;2.55;;
61635;SDS011;59438;45.014;39.006;2022-09-09T08:26:38;8.50;;;2.90;;
61635;SDS011;59438;45.014;39.006;2022-09-09T08:29:07;16.10;;;3.45;;
61635;SDS011;59438;45.014;39.006;2022-09-09T08:31:36;9.55;;;2.58;;
61635;SDS011;59438;45.014;39.006;2022-09-09T08:34:03;6.63;;;2.53;;
61635;SDS011;59438;45.014;39.006;2022-09-09T08:36:31;6.07;;;2.45;;
61635;SDS011;59438;45.014;39.006;2022-09-09T08:38:59;6.82;;;2.78;;
61635;SDS011;59438;45.014;39.006;2022-09-09T08:41:37;6.50;;;2.40;;
61635;SDS011;59438;45.014;39.006;2022-09-09T08:44:14;5.38;;;2.47;;
61635;SDS011;59438;45.014;39.006;2022-09-09T08:46:51;7.90;;;2.63;;
61635;SDS011;59438;45.014;39.006;2022-09-09T08:49:28;9.50;;;2.92;;
61635;SDS011;59438;45.014;39.006;2022-09-09T08:52:12;8.00;;;2.63;;
61635;SDS011;59438;45.014;39.006;2022-09-09T08:54:42;6.97;;;2.60;;
61635;SDS011;59438;45.014;39.006;2022-09-09T08:57:09;17.25;;;3.05;;
61635;SDS011;59438;45.014;39.006;2022-09-09T08:59:42;16.48;;;2.88;;
61635;SDS011;59438;45.014;39.006;2022-09-09T09:02:12;8.73;;;3.00;;
61635;SDS011;59438;45.014;39.006;2022-09-09T09:04:48;6.53;;;2.65;;
61635;SDS011;59438;45.014;39.006;2022-09-09T09:07:31;7.35;;;2.60;;
61635;SDS011;59438;45.014;39.006;2022-09-09T09:10:10;17.80;;;3.03;;
61635;SDS011;59438;45.014;39.006;2022-09-09T09:12:43;7.75;;;2.75;;
61635;SDS011;59438;45.014;39.006;2022-09-09T09:15:14;6.13;;;2.15;;
61635;SDS011;59438;45.014;39.006;2022-09-09T09:17:44;6.20;;;1.88;;
61635;SDS011;59438;45.014;39.006;2022-09-09T09:20:12;7.38;;;2.05;;
61635;SDS011;59438;45.014;39.006;2022-09-09T09:22:42;3.67;;;1.80;;
61635;SDS011;59438;45.014;39.006;2022-09-09T09:25:14;17.00;;;2.70;;
61635;SDS011;59438;45.014;39.006;2022-09-09T09:27:44;3.70;;;2.00;;
61635;SDS011;59438;45.014;39.006;2022-09-09T09:30:19;16.45;;;2.20;;
61635;SDS011;59438;45.014;39.006;2022-09-09T09:32:50;2.67;;;1.35;;
61635;SDS011;59438;45.014;39.006;2022-09-09T09:35:20;4.45;;;2.00;;
61635;SDS011;59438;45.014;39.006;2022-09-09T09:37:46;3.08;;;1.70;;
61635;SDS011;59438;45.014;39.006;2022-09-09T09:40:14;3.00;;;1.70;;
61635;SDS011;59438;45.014;39.006;2022-09-09T09:42:47;6.13;;;2.00;;
61635;SDS011;59438;45.014;39.006;2022-09-09T09:45:16;6.75;;;2.40;;
61635;SDS011;59438;45.014;39.006;2022-09-09T09:47:57;13.60;;;3.00;;
61635;SDS011;59438;45.014;39.006;2022-09-09T09:50:24;21.27;;;3.15;;
61635;SDS011;59438;45.014;39.006;2022-09-09T09:52:54;3.35;;;1.77;;
61635;SDS011;59438;45.014;39.006;2022-09-09T09:57:47;3.17;;;1.90;;
61635;SDS011;59438;45.014;39.006;2022-09-09T10:00:16;4.30;;;2.22;;
61635;SDS011;59438;45.014;39.006;2022-09-09T10:02:45;4.93;;;2.10;;
61635;SDS011;59438;45.014;39.006;2022-09-09T10:05:13;15.57;;;2.10;;
61635;SDS011;59438;45.014;39.006;2022-09-09T10:07:41;10.35;;;2.33;;
61635;SDS011;59438;45.014;39.006;2022-09-09T10:10:08;6.00;;;1.73;;
61635;SDS011;59438;45.014;39.006;2022-09-09T10:12:43;4.43;;;1.60;;
61635;SDS011;59438;45.014;39.006;2022-09-09T10:15:30;3.38;;;1.77;;
61635;SDS011;59438;45.014;39.006;2022-09-09T10:18:08;2.85;;;1.85;;
61635;SDS011;59438;45.014;39.006;2022-09-09T10:20:50;16.85;;;2.80;;
61635;SDS011;59438;45.014;39.006;2022-09-09T10:23:29;7.93;;;2.25;;
61635;SDS011;59438;45.014;39.006;2022-09-09T10:26:11;9.95;;;3.38;;
61635;SDS011;59438;45.014;39.006;2022-09-09T10:28:54;25.00;;;4.05;;
61635;SDS011;59438;45.014;39.006;2022-09-09T10:31:32;8.70;;;2.10;;
61635;SDS011;59438;45.014;39.006;2022-09-09T10:34:13;87.05;;;6.88;;
61635;SDS011;59438;45.014;39.006;2022-09-09T10:37:02;8.00;;;1.90;;
61635;SDS011;59438;45.014;39.006;2022-09-09T10:39:42;20.50;;;2.90;;
61635;SDS011;59438;45.014;39.006;2022-09-09T10:42:09;12.02;;;6.05;;
61635;SDS011;59438;45.014;39.006;2022-09-09T10:44:42;18.98;;;3.65;;
61635;SDS011;59438;45.014;39.006;2022-09-09T10:47:25;15.00;;;2.40;;
61635;SDS011;59438;45.014;39.006;2022-09-09T10:50:11;3.55;;;2.50;;
61635;SDS011;59438;45.014;39.006;2022-09-09T10:52:50;5.45;;;2.00;;
61635;SDS011;59438;45.014;39.006;2022-09-09T10:55:24;12.85;;;2.60;;
61635;SDS011;59438;45.014;39.006;2022-09-09T10:57:59;15.38;;;3.03;;
61635;SDS011;59438;45.014;39.006;2022-09-09T11:00:31;6.95;;;2.05;;
61635;SDS011;59438;45.014;39.006;2022-09-09T11:03:04;8.63;;;2.00;;
61635;SDS011;59438;45.014;39.006;2022-09-09T11:05:34;31.30;;;11.63;;
61635;SDS011;59438;45.014;39.006;2022-09-09T11:08:08;57.17;;;10.02;;
61635;SDS011;59438;45.014;39.006;2022-09-09T11:10:40;19.73;;;4.35;;
61635;SDS011;59438;45.014;39.006;2022-09-09T11:13:11;9.80;;;2.55;;
61635;SDS011;59438;45.014;39.006;2022-09-09T11:15:45;6.15;;;2.15;;
61635;SDS011;59438;45.014;39.006;2022-09-09T11:18:17;4.88;;;2.17;;
61635;SDS011;59438;45.014;39.006;2022-09-09T11:20:47;4.55;;;2.15;;
61635;SDS011;59438;45.014;39.006;2022-09-09T11:23:17;6.00;;;2.58;;
61635;SDS011;59438;45.014;39.006;2022-09-09T11:25:50;7.18;;;2.30;;
61635;SDS011;59438;45.014;39.006;2022-09-09T11:28:25;7.93;;;2.10;;
61635;SDS011;59438;45.014;39.006;2022-09-09T11:31:04;12.20;;;2.97;;
61635;SDS011;59438;45.014;39.006;2022-09-09T11:36:52;6.53;;;2.40;;
61635;SDS011;59438;45.014;39.006;2022-09-09T11:39:33;54.85;;;7.50;;
61635;SDS011;59438;45.014;39.006;2022-09-09T11:42:13;10.20;;;2.92;;
61635;SDS011;59438;45.014;39.006;2022-09-09T11:44:43;10.70;;;3.42;;
61635;SDS011;59438;45.014;39.006;2022-09-09T11:47:15;368.88;;;18.90;;
61635;SDS011;59438;45.014;39.006;2022-09-09T11:49:46;299.13;;;36.45;;
61635;SDS011;59438;45.014;39.006;2022-09-09T11:52:18;30.90;;;6.78;;
61635;SDS011;59438;45.014;39.006;2022-09-09T11:54:48;30.63;;;8.40;;
61635;SDS011;59438;45.014;39.006;2022-09-09T11:57:23;18.88;;;3.95;;
61635;SDS011;59438;45.014;39.006;2022-09-09T11:59:52;6.15;;;2.70;;
61635;SDS011;59438;45.014;39.006;2022-09-09T12:02:21;28.67;;;4.30;;
61635;SDS011;59438;45.014;39.006;2022-09-09T12:04:53;18.50;;;3.13;;
61635;SDS011;59438;45.014;39.006;2022-09-09T12:07:26;52.30;;;7.65;;
61635;SDS011;59438;45.014;39.006;2022-09-09T12:09:58;8.68;;;2.88;;
61635;SDS011;59438;45.014;39.006;2022-09-09T12:12:30;8.63;;;2.60;;
61635;SDS011;59438;45.014;39.006;2022-09-09T12:14:59;15.38;;;3.55;;
61635;SDS011;59438;45.014;39.006;2022-09-09T12:17:29;60.00;;;5.93;;
61635;SDS011;59438;45.014;39.006;2022-09-09T12:20:00;51.95;;;8.85;;
61635;SDS011;59438;45.014;39.006;2022-09-09T12:22:31;32.65;;;4.60;;
61635;SDS011;59438;45.014;39.006;2022-09-09T12:25:09;25.42;;;4.78;;
61635;SDS011;59438;45.014;39.006;2022-09-09T12:27:49;21.30;;;6.27;;
61635;SDS011;59438;45.014;39.006;2022-09-09T12:30:28;26.20;;;6.75;;
61635;SDS011;59438;45.014;39.006;2022-09-09T12:33:00;34.65;;;5.95;;
61635;SDS011;59438;45.014;39.006;2022-09-09T12:35:27;8.98;;;4.45;;
61635;SDS011;59438;45.014;39.006;2022-09-09T12:37:57;66.03;;;9.80;;
61635;SDS011;59438;45.014;39.006;2022-09-09T12:40:28;17.70;;;4.95;;
61635;SDS011;59438;45.014;39.006;2022-09-09T12:42:55;11.73;;;4.90;;
61635;SDS011;59438;45.014;39.006;2022-09-09T12:45:22;11.25;;;4.90;;
61635;SDS011;59438;45.014;39.006;2022-09-09T12:47:50;40.50;;;19.13;;
61635;SDS011;59438;45.014;39.006;2022-09-09T12:50:20;24.67;;;7.25;;
61635;SDS011;59438;45.014;39.006;2022-09-09T12:52:49;20.15;;;6.00;;
61635;SDS011;59438;45.014;39.006;2022-09-09T12:55:20;18.45;;;8.80;;
61635;SDS011;59438;45.014;39.006;2022-09-09T12:57:48;13.00;;;6.68;;
61635;SDS011;59438;45.014;39.006;2022-09-09T13:00:20;6.70;;;4.60;;
61635;SDS011;59438;45.014;39.006;2022-09-09T13:02:49;8.48;;;4.53;;
61635;SDS011;59438;45.014;39.006;2022-09-09T13:05:19;73.63;;;11.55;;
61635;SDS011;59438;45.014;39.006;2022-09-09T13:07:47;14.45;;;4.40;;
61635;SDS011;59438;45.014;39.006;2022-09-09T13:10:15;17.92;;;4.28;;
61635;SDS011;59438;45.014;39.006;2022-09-09T13:12:50;10.50;;;3.85;;
61635;SDS011;59438;45.014;39.006;2022-09-09T13:15:19;10.20;;;4.22;;
61635;SDS011;59438;45.014;39.006;2022-09-09T13:17:51;33.72;;;7.35;;
61635;SDS011;59438;45.014;39.006;2022-09-09T13:20:20;10.40;;;4.00;;
61635;SDS011;59438;45.014;39.006;2022-09-09T13:22:48;39.50;;;5.15;;
61635;SDS011;59438;45.014;39.006;2022-09-09T13:25:20;14.93;;;3.67;;
61635;SDS011;59438;45.014;39.006;2022-09-09T13:28:00;13.25;;;3.25;;
61635;SDS011;59438;45.014;39.006;2022-09-09T13:30:28;5.20;;;3.10;;
61635;SDS011;59438;45.014;39.006;2022-09-09T13:38:14;18.83;;;3.65;;
61635;SDS011;59438;45.014;39.006;2022-09-09T13:40:42;13.00;;;2.72;;
61635;SDS011;59438;45.014;39.006;2022-09-09T13:43:20;13.95;;;3.58;;
61635;SDS011;59438;45.014;39.006;2022-09-09T13:45:52;46.20;;;6.30;;
61635;SDS011;59438;45.014;39.006;2022-09-09T13:48:20;9.80;;;3.20;;
61635;SDS011;59438;45.014;39.006;2022-09-09T13:50:53;5.00;;;2.60;;
61635;SDS011;59438;45.014;39.006;2022-09-09T13:53:21;12.00;;;3.22;;
61635;SDS011;59438;45.014;39.006;2022-09-09T13:55:49;14.65;;;3.90;;
61635;SDS011;59438;45.014;39.006;2022-09-09T13:58:16;20.15;;;4.38;;
61635;SDS011;59438;45.014;39.006;2022-09-09T14:00:43;17.67;;;2.88;;
61635;SDS011;59438;45.014;39.006;2022-09-09T14:03:09;10.23;;;2.85;;
61635;SDS011;59438;45.014;39.006;2022-09-09T14:05:36;8.45;;;3.58;;
61635;SDS011;59438;45.014;39.006;2022-09-09T14:08:03;13.10;;;3.55;;
61635;SDS011;59438;45.014;39.006;2022-09-09T14:10:30;10.60;;;3.30;;
61635;SDS011;59438;45.014;39.006;2022-09-09T14:12:58;8.93;;;2.63;;
61635;SDS011;59438;45.014;39.006;2022-09-09T14:15:24;9.25;;;2.55;;
61635;SDS011;59438;45.014;39.006;2022-09-09T14:17:51;10.07;;;2.95;;
61635;SDS011;59438;45.014;39.006;2022-09-09T14:20:17;16.50;;;9.00;;
61635;SDS011;59438;45.014;39.006;2022-09-09T14:22:44;301.10;;;40.75;;
61635;SDS011;59438;45.014;39.006;2022-09-09T14:25:10;32.75;;;6.78;;
61635;SDS011;59438;45.014;39.006;2022-09-09T14:27:36;11.60;;;3.30;;
61635;SDS011;59438;45.014;39.006;2022-09-09T14:30:05;8.57;;;2.95;;
61635;SDS011;59438;45.014;39.006;2022-09-09T14:32:32;163.10;;;21.02;;
61635;SDS011;59438;45.014;39.006;2022-09-09T14:34:58;15.93;;;4.20;;
61635;SDS011;59438;45.014;39.006;2022-09-09T14:37:25;63.70;;;11.98;;
61635;SDS011;59438;45.014;39.006;2022-09-09T14:39:52;14.85;;;4.55;;
61635;SDS011;59438;45.014;39.006;2022-09-09T14:42:19;16.02;;;3.20;;
61635;SDS011;59438;45.014;39.006;2022-09-09T14:44:46;35.88;;;6.82;;
61635;SDS011;59438;45.014;39.006;2022-09-09T14:47:14;22.08;;;5.13;;
61635;SDS011;59438;45.014;39.006;2022-09-09T14:49:40;13.85;;;3.70;;
61635;SDS011;59438;45.014;39.006;2022-09-09T14:52:07;12.35;;;3.20;;